Silverthorne, Colorado
Current Conditions -  °F | °C
As of 5:35 AM on Tuesday 27 Jan 2015 (Local Time) from KCCU Reporting Station
Clear Clear  
Wind Chill: 30°   Ceiling: Unl
Heat Index: 37°   Visibility: 10mi
Dew Point:   Wind: 10mph
Humidity: 24%   Direction: 170°S
Pressure: 30.5"   Gusts: NA
Location:  39.65°N, 106.08°W
Report Text: KCCU 271235Z AUTO 17009KT 10SM CLR 03/M16 A3050 RMK AO2
Loading
Personal Weather Stations






























Interactive Weather Map New forecast layout! Learn more

10-Day Weather Forecast

Advertisements
Track Severe Weather on mobile